sensor_id;sensor_type;location;lat;lon;timestamp;pressure;altitude;pressure_sealevel;temperature;humidity
9676;BME280;4876;42.656;23.292;2022-08-21T00:01:24;93858.19;;;19.61;100.00
9676;BME280;4876;42.656;23.292;2022-08-21T00:03:52;93846.72;;;19.57;100.00
9676;BME280;4876;42.656;23.292;2022-08-21T00:06:19;93855.16;;;19.59;100.00
9676;BME280;4876;42.656;23.292;2022-08-21T00:08:47;93856.25;;;19.54;100.00
9676;BME280;4876;42.656;23.292;2022-08-21T00:11:14;93852.78;;;19.47;100.00
9676;BME280;4876;42.656;23.292;2022-08-21T00:13:41;93842.84;;;19.36;100.00
9676;BME280;4876;42.656;23.292;2022-08-21T00:16:08;93834.47;;;19.27;100.00
9676;BME280;4876;42.656;23.292;2022-08-21T00:18:35;93833.22;;;19.00;100.00
9676;BME280;4876;42.656;23.292;2022-08-21T00:21:02;93836.59;;;18.82;100.00
9676;BME280;4876;42.656;23.292;2022-08-21T00:23:29;93832.09;;;19.01;100.00
9676;BME280;4876;42.656;23.292;2022-08-21T00:25:58;93827.94;;;19.10;100.00
9676;BME280;4876;42.656;23.292;2022-08-21T00:28:25;93832.84;;;19.01;100.00
9676;BME280;4876;42.656;23.292;2022-08-21T00:30:52;93821.81;;;19.03;100.00
9676;BME280;4876;42.656;23.292;2022-08-21T00:33:19;93826.47;;;19.31;100.00
9676;BME280;4876;42.656;23.292;2022-08-21T00:35:45;93823.03;;;19.23;100.00
9676;BME280;4876;42.656;23.292;2022-08-21T00:38:12;93830.63;;;19.21;100.00
9676;BME280;4876;42.656;23.292;2022-08-21T00:40:43;93830.28;;;19.26;100.00
9676;BME280;4876;42.656;23.292;2022-08-21T00:43:16;93828.81;;;19.50;100.00
9676;BME280;4876;42.656;23.292;2022-08-21T00:45:43;93836.78;;;19.32;100.00
9676;BME280;4876;42.656;23.292;2022-08-21T00:48:10;93839.03;;;19.30;100.00
9676;BME280;4876;42.656;23.292;2022-08-21T00:50:41;93837.91;;;19.35;100.00
9676;BME280;4876;42.656;23.292;2022-08-21T00:53:10;93833.00;;;19.55;100.00
9676;BME280;4876;42.656;23.292;2022-08-21T00:55:39;93835.31;;;19.60;100.00
9676;BME280;4876;42.656;23.292;2022-08-21T00:58:09;93828.88;;;19.75;100.00
9676;BME280;4876;42.656;23.292;2022-08-21T01:00:42;93814.72;;;19.57;100.00
9676;BME280;4876;42.656;23.292;2022-08-21T01:03:13;93788.75;;;19.29;100.00
9676;BME280;4876;42.656;23.292;2022-08-21T01:05:41;93833.00;;;19.55;100.00
9676;BME280;4876;42.656;23.292;2022-08-21T01:08:09;93822.28;;;19.33;100.00
9676;BME280;4876;42.656;23.292;2022-08-21T01:10:37;93820.78;;;19.43;100.00
9676;BME280;4876;42.656;23.292;2022-08-21T01:13:07;93807.06;;;19.48;100.00
9676;BME280;4876;42.656;23.292;2022-08-21T01:15:37;93814.72;;;19.57;100.00
9676;BME280;4876;42.656;23.292;2022-08-21T01:18:09;93811.63;;;19.33;100.00
9676;BME280;4876;42.656;23.292;2022-08-21T01:20:37;93809.34;;;19.32;100.00
9676;BME280;4876;42.656;23.292;2022-08-21T01:23:05;93773.91;;;19.31;100.00
9676;BME280;4876;42.656;23.292;2022-08-21T01:25:33;93781.50;;;19.22;100.00
9676;BME280;4876;42.656;23.292;2022-08-21T01:28:04;93796.41;;;19.45;100.00
9676;BME280;4876;42.656;23.292;2022-08-21T01:30:34;93795.25;;;19.42;100.00
9676;BME280;4876;42.656;23.292;2022-08-21T01:33:02;93801.00;;;19.55;100.00
9676;BME280;4876;42.656;23.292;2022-08-21T01:35:29;93810.09;;;19.36;100.00
9676;BME280;4876;42.656;23.292;2022-08-21T01:37:56;93810.00;;;19.04;100.00
9676;BME280;4876;42.656;23.292;2022-08-21T01:40:25;93814.66;;;19.28;100.00
9676;BME280;4876;42.656;23.292;2022-08-21T01:42:51;93811.63;;;19.37;100.00
9676;BME280;4876;42.656;23.292;2022-08-21T01:45:19;93813.53;;;19.33;100.00
9676;BME280;4876;42.656;23.292;2022-08-21T01:47:46;93808.53;;;19.14;100.00
9676;BME280;4876;42.656;23.292;2022-08-21T01:50:15;93804.59;;;18.79;100.00
9676;BME280;4876;42.656;23.292;2022-08-21T01:52:42;93797.81;;;18.99;100.00
9676;BME280;4876;42.656;23.292;2022-08-21T01:55:11;93801.66;;;19.02;100.00
9676;BME280;4876;42.656;23.292;2022-08-21T01:57:40;93803.94;;;19.03;100.00
9676;BME280;4876;42.656;23.292;2022-08-21T02:00:10;93802.06;;;19.25;100.00
9676;BME280;4876;42.656;23.292;2022-08-21T02:02:38;93813.50;;;19.29;100.00
9676;BME280;4876;42.656;23.292;2022-08-21T02:05:06;93813.47;;;19.19;100.00
9676;BME280;4876;42.656;23.292;2022-08-21T02:07:36;93816.16;;;19.15;100.00
9676;BME280;4876;42.656;23.292;2022-08-21T02:10:06;93816.16;;;19.15;100.00
9676;BME280;4876;42.656;23.292;2022-08-21T02:12:34;93823.78;;;19.20;100.00
9676;BME280;4876;42.656;23.292;2022-08-21T02:15:03;93815.78;;;19.24;100.00
9676;BME280;4876;42.656;23.292;2022-08-21T02:17:37;93824.19;;;19.36;100.00
9676;BME280;4876;42.656;23.292;2022-08-21T02:20:05;93826.13;;;19.40;100.00
9676;BME280;4876;42.656;23.292;2022-08-21T02:22:32;93829.53;;;19.33;100.00
9676;BME280;4876;42.656;23.292;2022-08-21T02:24:59;93826.09;;;19.32;100.00
9676;BME280;4876;42.656;23.292;2022-08-21T02:27:26;93825.31;;;19.28;100.00
9676;BME280;4876;42.656;23.292;2022-08-21T02:29:54;93830.66;;;19.28;100.00
9676;BME280;4876;42.656;23.292;2022-08-21T02:32:22;93832.94;;;19.19;100.00
9676;BME280;4876;42.656;23.292;2022-08-21T02:34:49;93837.47;;;19.15;100.00
9676;BME280;4876;42.656;23.292;2022-08-21T02:37:16;93835.16;;;19.03;100.00
9676;BME280;4876;42.656;23.292;2022-08-21T02:39:43;93840.81;;;18.98;100.00
9676;BME280;4876;42.656;23.292;2022-08-21T02:42:10;93832.84;;;18.98;100.00
9676;BME280;4876;42.656;23.292;2022-08-21T02:44:37;93835.72;;;18.68;100.00
9676;BME280;4876;42.656;23.292;2022-08-21T02:47:04;93825.31;;;18.45;100.00
9676;BME280;4876;42.656;23.292;2022-08-21T02:49:32;93832.94;;;18.46;100.00
9676;BME280;4876;42.656;23.292;2022-08-21T02:51:59;93835.69;;;18.64;100.00
9676;BME280;4876;42.656;23.292;2022-08-21T02:54:25;93825.53;;;18.80;100.00
9676;BME280;4876;42.656;23.292;2022-08-21T02:56:52;93831.66;;;18.92;100.00
9676;BME280;4876;42.656;23.292;2022-08-21T02:59:19;93826.38;;;18.99;100.00
9676;BME280;4876;42.656;23.292;2022-08-21T03:01:46;93828.28;;;19.05;100.00
9676;BME280;4876;42.656;23.292;2022-08-21T03:04:13;93831.84;;;18.54;100.00
9676;BME280;4876;42.656;23.292;2022-08-21T03:06:41;93831.13;;;18.65;100.00
9676;BME280;4876;42.656;23.292;2022-08-21T03:09:08;93828.38;;;18.47;100.00
9676;BME280;4876;42.656;23.292;2022-08-21T03:11:35;93834.63;;;18.72;100.00
9676;BME280;4876;42.656;23.292;2022-08-21T03:14:02;93823.66;;;18.85;100.00
9676;BME280;4876;42.656;23.292;2022-08-21T03:16:30;93829.31;;;18.79;100.00
9676;BME280;4876;42.656;23.292;2022-08-21T03:18:57;93829.97;;;18.62;100.00
9676;BME280;4876;42.656;23.292;2022-08-21T03:21:25;93838.44;;;18.16;100.00
9676;BME280;4876;42.656;23.292;2022-08-21T03:23:53;93833.13;;;18.16;100.00
9676;BME280;4876;42.656;23.292;2022-08-21T03:26:19;93828.59;;;18.20;100.00
9676;BME280;4876;42.656;23.292;2022-08-21T03:28:46;93825.22;;;18.30;100.00
9676;BME280;4876;42.656;23.292;2022-08-21T03:31:14;93820.38;;;18.50;100.00
9676;BME280;4876;42.656;23.292;2022-08-21T03:33:40;93825.75;;;18.54;100.00
9676;BME280;4876;42.656;23.292;2022-08-21T03:36:10;93825.22;;;18.27;100.00
9676;BME280;4876;42.656;23.292;2022-08-21T03:38:38;93822.69;;;18.52;100.00
9676;BME280;4876;42.656;23.292;2022-08-21T03:41:08;93805.13;;;18.40;100.00
9676;BME280;4876;42.656;23.292;2022-08-21T03:43:35;93825.06;;;18.64;100.00
9676;BME280;4876;42.656;23.292;2022-08-21T03:46:05;93818.16;;;18.63;100.00
9676;BME280;4876;42.656;23.292;2022-08-21T03:48:33;93825.78;;;18.61;100.00
9676;BME280;4876;42.656;23.292;2022-08-21T03:51:00;93830.72;;;18.59;100.00
9676;BME280;4876;42.656;23.292;2022-08-21T03:53:28;93825.03;;;18.57;100.00
9676;BME280;4876;42.656;23.292;2022-08-21T03:55:56;93818.44;;;18.44;100.00
9676;BME280;4876;42.656;23.292;2022-08-21T03:58:26;93842.22;;;18.67;100.00
9676;BME280;4876;42.656;23.292;2022-08-21T04:00:55;93842.25;;;18.77;100.00
9676;BME280;4876;42.656;23.292;2022-08-21T04:03:23;93850.28;;;18.85;100.00
9676;BME280;4876;42.656;23.292;2022-08-21T04:05:50;93837.00;;;18.88;100.00
9676;BME280;4876;42.656;23.292;2022-08-21T04:08:17;93848.41;;;18.89;100.00
9676;BME280;4876;42.656;23.292;2022-08-21T04:10:45;93844.91;;;18.74;100.00
9676;BME280;4876;42.656;23.292;2022-08-21T04:13:12;93848.66;;;18.69;100.00
9676;BME280;4876;42.656;23.292;2022-08-21T04:15:41;93852.56;;;18.86;100.00
9676;BME280;4876;42.656;23.292;2022-08-21T04:18:10;93848.94;;;18.53;100.00
9676;BME280;4876;42.656;23.292;2022-08-21T04:20:37;93841.84;;;18.75;100.00
9676;BME280;4876;42.656;23.292;2022-08-21T04:23:04;93833.50;;;18.80;100.00
9676;BME280;4876;42.656;23.292;2022-08-21T04:25:31;93841.03;;;18.64;100.00
9676;BME280;4876;42.656;23.292;2022-08-21T04:27:57;93843.13;;;18.34;100.00
9676;BME280;4876;42.656;23.292;2022-08-21T04:30:25;93839.28;;;18.27;100.00
9676;BME280;4876;42.656;23.292;2022-08-21T04:32:53;93841.47;;;18.18;100.00
9676;BME280;4876;42.656;23.292;2022-08-21T04:35:22;93837.59;;;18.01;100.00
9676;BME280;4876;42.656;23.292;2022-08-21T04:37:49;93843.31;;;18.07;100.00
9676;BME280;4876;42.656;23.292;2022-08-21T04:40:17;93844.44;;;18.06;100.00
9676;BME280;4876;42.656;23.292;2022-08-21T04:42:46;93825.00;;;17.98;100.00
9676;BME280;4876;42.656;23.292;2022-08-21T04:45:19;93842.19;;;18.12;100.00
9676;BME280;4876;42.656;23.292;2022-08-21T04:47:48;93825.59;;;18.29;100.00
9676;BME280;4876;42.656;23.292;2022-08-21T04:50:17;93834.84;;;18.46;100.00
9676;BME280;4876;42.656;23.292;2022-08-21T04:52:45;93834.88;;;18.53;100.00
9676;BME280;4876;42.656;23.292;2022-08-21T04:55:13;93837.28;;;18.72;100.00
9676;BME280;4876;42.656;23.292;2022-08-21T04:57:40;93833.97;;;19.00;100.00
9676;BME280;4876;42.656;23.292;2022-08-21T05:00:09;93841.22;;;19.00;100.00
9676;BME280;4876;42.656;23.292;2022-08-21T05:02:38;93839.00;;;19.23;100.00
9676;BME280;4876;42.656;23.292;2022-08-21T05:05:07;93823.09;;;19.45;100.00
9676;BME280;4876;42.656;23.292;2022-08-21T05:07:35;93841.47;;;19.82;100.00
9676;BME280;4876;42.656;23.292;2022-08-21T05:10:04;93843.38;;;20.13;100.00
9676;BME280;4876;42.656;23.292;2022-08-21T05:12:33;93849.06;;;20.44;100.00
9676;BME280;4876;42.656;23.292;2022-08-21T05:15:01;93849.47;;;20.28;100.00
9676;BME280;4876;42.656;23.292;2022-08-21T05:17:28;93852.13;;;20.21;100.00
9676;BME280;4876;42.656;23.292;2022-08-21T05:19:54;93852.53;;;20.09;100.00
9676;BME280;4876;42.656;23.292;2022-08-21T05:22:22;93839.94;;;19.88;100.00
9676;BME280;4876;42.656;23.292;2022-08-21T05:24:51;93846.03;;;19.88;100.00
9676;BME280;4876;42.656;23.292;2022-08-21T05:27:18;93851.38;;;19.92;100.00
9676;BME280;4876;42.656;23.292;2022-08-21T05:29:45;93845.25;;;19.70;100.00
9676;BME280;4876;42.656;23.292;2022-08-21T05:32:12;93845.13;;;19.31;100.00
9676;BME280;4876;42.656;23.292;2022-08-21T05:34:39;93840.63;;;19.56;100.00
9676;BME280;4876;42.656;23.292;2022-08-21T05:37:06;93839.91;;;19.63;100.00
9676;BME280;4876;42.656;23.292;2022-08-21T05:39:33;93836.38;;;19.34;100.00
9676;BME280;4876;42.656;23.292;2022-08-21T05:42:01;93840.28;;;19.58;100.00
9676;BME280;4876;42.656;23.292;2022-08-21T05:44:28;93835.72;;;19.87;99.49
9676;BME280;4876;42.656;23.292;2022-08-21T05:47:02;93839.16;;;19.73;100.00
9676;BME280;4876;42.656;23.292;2022-08-21T05:49:29;93831.56;;;19.75;100.00
9676;BME280;4876;42.656;23.292;2022-08-21T05:51:56;93819.31;;;19.60;100.00
9676;BME280;4876;42.656;23.292;2022-08-21T05:54:23;93824.28;;;19.86;100.00
9676;BME280;4876;42.656;23.292;2022-08-21T05:56:50;93826.53;;;19.52;100.00
9676;BME280;4876;42.656;23.292;2022-08-21T05:59:18;93831.53;;;19.65;100.00
9676;BME280;4876;42.656;23.292;2022-08-21T06:01:45;93842.19;;;19.68;100.00
9676;BME280;4876;42.656;23.292;2022-08-21T06:04:13;93842.94;;;19.69;100.00
9676;BME280;4876;42.656;23.292;2022-08-21T06:06:39;93836.88;;;19.72;100.00
9676;BME280;4876;42.656;23.292;2022-08-21T06:09:06;93832.31;;;20.01;100.00
9676;BME280;4876;42.656;23.292;2022-08-21T06:11:34;93832.31;;;20.19;99.72
9676;BME280;4876;42.656;23.292;2022-08-21T06:14:01;93843.00;;;20.51;98.20
9676;BME280;4876;42.656;23.292;2022-08-21T06:16:29;93812.03;;;20.42;96.16
9676;BME280;4876;42.656;23.292;2022-08-21T06:18:56;93828.84;;;20.54;95.38
9676;BME280;4876;42.656;23.292;2022-08-21T06:21:23;93833.81;;;20.52;95.15
9676;BME280;4876;42.656;23.292;2022-08-21T06:23:50;93837.63;;;20.36;97.34
9676;BME280;4876;42.656;23.292;2022-08-21T06:26:16;93825.81;;;20.16;99.19
9676;BME280;4876;42.656;23.292;2022-08-21T06:28:43;93831.91;;;20.27;96.48
9676;BME280;4876;42.656;23.292;2022-08-21T06:31:12;93825.44;;;20.28;95.64
9676;BME280;4876;42.656;23.292;2022-08-21T06:33:41;93836.88;;;20.54;95.13
9676;BME280;4876;42.656;23.292;2022-08-21T06:36:08;93832.28;;;20.43;94.67
9676;BME280;4876;42.656;23.292;2022-08-21T06:38:35;93833.78;;;20.66;92.40
9676;BME280;4876;42.656;23.292;2022-08-21T06:41:03;93841.78;;;20.73;93.27
9676;BME280;4876;42.656;23.292;2022-08-21T06:43:30;93843.59;;;21.08;90.20
9676;BME280;4876;42.656;23.292;2022-08-21T06:45:57;93838.66;;;20.96;91.70
9676;BME280;4876;42.656;23.292;2022-08-21T06:48:23;93836.00;;;20.96;92.52
9676;BME280;4876;42.656;23.292;2022-08-21T06:50:52;93838.19;;;21.19;90.41
9676;BME280;4876;42.656;23.292;2022-08-21T06:53:20;93840.84;;;21.26;89.30
9676;BME280;4876;42.656;23.292;2022-08-21T06:55:48;93843.13;;;21.24;89.09
9676;BME280;4876;42.656;23.292;2022-08-21T06:58:16;93844.78;;;20.96;91.15
9676;BME280;4876;42.656;23.292;2022-08-21T07:00:47;93855.06;;;21.02;90.50
9676;BME280;4876;42.656;23.292;2022-08-21T07:03:19;93849.00;;;20.94;92.22
9676;BME280;4876;42.656;23.292;2022-08-21T07:05:47;93853.59;;;20.79;92.44
9676;BME280;4876;42.656;23.292;2022-08-21T07:08:15;93852.16;;;20.46;93.45
9676;BME280;4876;42.656;23.292;2022-08-21T07:10:42;93854.38;;;20.73;90.30
9676;BME280;4876;42.656;23.292;2022-08-21T07:13:09;93847.06;;;20.91;88.01
9676;BME280;4876;42.656;23.292;2022-08-21T07:15:36;93845.16;;;20.91;88.90
9676;BME280;4876;42.656;23.292;2022-08-21T07:18:03;93859.34;;;20.81;88.67
9676;BME280;4876;42.656;23.292;2022-08-21T07:20:30;93846.97;;;21.19;90.88
9676;BME280;4876;42.656;23.292;2022-08-21T07:23:00;93853.03;;;21.38;88.06
9676;BME280;4876;42.656;23.292;2022-08-21T07:25:29;93854.06;;;21.55;90.08
9676;BME280;4876;42.656;23.292;2022-08-21T07:27:56;93846.81;;;22.18;87.92
9676;BME280;4876;42.656;23.292;2022-08-21T07:30:23;93852.25;;;22.03;83.83
9676;BME280;4876;42.656;23.292;2022-08-21T07:32:50;93841.47;;;22.18;84.96
9676;BME280;4876;42.656;23.292;2022-08-21T07:35:18;93833.06;;;22.09;84.83
9676;BME280;4876;42.656;23.292;2022-08-21T07:37:45;93832.63;;;22.21;82.59
9676;BME280;4876;42.656;23.292;2022-08-21T07:40:12;93828.00;;;22.25;81.63
9676;BME280;4876;42.656;23.292;2022-08-21T07:42:43;93832.72;;;22.55;79.56
9676;BME280;4876;42.656;23.292;2022-08-21T07:45:11;93832.88;;;22.37;80.15
9676;BME280;4876;42.656;23.292;2022-08-21T07:47:38;93831.41;;;22.29;78.52
9676;BME280;4876;42.656;23.292;2022-08-21T07:50:06;93833.41;;;22.63;78.68
9676;BME280;4876;42.656;23.292;2022-08-21T07:52:33;93828.50;;;22.92;76.99
9676;BME280;4876;42.656;23.292;2022-08-21T07:55:00;93827.72;;;22.53;79.19
9676;BME280;4876;42.656;23.292;2022-08-21T07:57:26;93828.97;;;22.45;78.22
9676;BME280;4876;42.656;23.292;2022-08-21T07:59:55;93827.53;;;22.34;79.50
9676;BME280;4876;42.656;23.292;2022-08-21T08:02:23;93829.09;;;22.31;78.91
9676;BME280;4876;42.656;23.292;2022-08-21T08:04:50;93837.84;;;22.35;79.77
9676;BME280;4876;42.656;23.292;2022-08-21T08:07:17;93830.56;;;22.39;80.58
9676;BME280;4876;42.656;23.292;2022-08-21T08:09:44;93796.72;;;22.15;79.54
9676;BME280;4876;42.656;23.292;2022-08-21T08:12:11;93830.56;;;22.36;80.58
9676;BME280;4876;42.656;23.292;2022-08-21T08:14:38;93832.81;;;22.44;78.74
9676;BME280;4876;42.656;23.292;2022-08-21T08:17:06;93833.22;;;22.80;77.41
9676;BME280;4876;42.656;23.292;2022-08-21T08:19:33;93824.34;;;22.87;76.12
9676;BME280;4876;42.656;23.292;2022-08-21T08:22:00;93821.06;;;23.06;75.23
9676;BME280;4876;42.656;23.292;2022-08-21T08:24:27;93823.09;;;22.95;75.59
9676;BME280;4876;42.656;23.292;2022-08-21T08:26:54;93827.97;;;22.70;76.47
9676;BME280;4876;42.656;23.292;2022-08-21T08:29:22;93822.03;;;22.89;75.86
9676;BME280;4876;42.656;23.292;2022-08-21T08:31:49;93799.56;;;22.76;76.36
9676;BME280;4876;42.656;23.292;2022-08-21T08:34:17;93836.44;;;22.65;78.40
9676;BME280;4876;42.656;23.292;2022-08-21T08:36:45;93823.94;;;22.85;73.71
9676;BME280;4876;42.656;23.292;2022-08-21T08:39:11;93838.41;;;22.98;73.50
9676;BME280;4876;42.656;23.292;2022-08-21T08:41:39;93836.34;;;23.09;73.66
9676;BME280;4876;42.656;23.292;2022-08-21T08:44:08;93837.81;;;22.80;74.17
9676;BME280;4876;42.656;23.292;2022-08-21T08:46:38;93837.25;;;22.62;74.50
9676;BME280;4876;42.656;23.292;2022-08-21T08:49:14;93821.50;;;23.01;74.30
9676;BME280;4876;42.656;23.292;2022-08-21T08:51:46;93833.22;;;23.45;71.92
9676;BME280;4876;42.656;23.292;2022-08-21T08:54:19;93799.50;;;23.44;70.92
9676;BME280;4876;42.656;23.292;2022-08-21T08:56:49;93827.66;;;23.59;69.67
9676;BME280;4876;42.656;23.292;2022-08-21T08:59:20;93792.19;;;23.18;71.13
9676;BME280;4876;42.656;23.292;2022-08-21T09:01:48;93821.25;;;23.80;68.97
9676;BME280;4876;42.656;23.292;2022-08-21T09:04:21;93815.69;;;23.68;68.67
9676;BME280;4876;42.656;23.292;2022-08-21T09:07:04;93800.94;;;24.03;68.29
9676;BME280;4876;42.656;23.292;2022-08-21T09:09:44;93806.13;;;23.67;68.48
9676;BME280;4876;42.656;23.292;2022-08-21T09:12:18;93804.72;;;23.55;70.44
9676;BME280;4876;42.656;23.292;2022-08-21T09:14:57;93800.50;;;23.54;70.03
9676;BME280;4876;42.656;23.292;2022-08-21T09:17:36;93798.66;;;23.20;72.73
9676;BME280;4876;42.656;23.292;2022-08-21T09:20:14;93797.13;;;23.50;70.49
9676;BME280;4876;42.656;23.292;2022-08-21T09:22:58;93795.91;;;23.54;69.85
9676;BME280;4876;42.656;23.292;2022-08-21T09:25:33;93793.25;;;23.81;68.87
9676;BME280;4876;42.656;23.292;2022-08-21T09:28:01;93795.84;;;23.61;70.62
9676;BME280;4876;42.656;23.292;2022-08-21T09:30:30;93789.00;;;23.53;70.80
9676;BME280;4876;42.656;23.292;2022-08-21T09:32:57;93790.91;;;23.83;67.85
9676;BME280;4876;42.656;23.292;2022-08-21T09:35:25;93784.91;;;23.45;69.61
9676;BME280;4876;42.656;23.292;2022-08-21T09:37:55;93794.66;;;23.62;69.03
9676;BME280;4876;42.656;23.292;2022-08-21T09:40:29;93783.28;;;24.05;65.33
9676;BME280;4876;42.656;23.292;2022-08-21T09:42:59;93788.06;;;24.17;65.03
9676;BME280;4876;42.656;23.292;2022-08-21T09:45:26;93777.63;;;23.46;66.72
9676;BME280;4876;42.656;23.292;2022-08-21T09:47:53;93778.81;;;23.41;68.28
9676;BME280;4876;42.656;23.292;2022-08-21T09:50:23;93776.22;;;23.64;67.82
9676;BME280;4876;42.656;23.292;2022-08-21T09:52:57;93782.16;;;23.79;67.62
9676;BME280;4876;42.656;23.292;2022-08-21T09:55:31;93778.91;;;23.92;67.76
9676;BME280;4876;42.656;23.292;2022-08-21T09:58:17;93777.31;;;23.94;66.21
9676;BME280;4876;42.656;23.292;2022-08-21T10:00:44;93770.53;;;23.86;66.13
9676;BME280;4876;42.656;23.292;2022-08-21T10:03:18;93771.88;;;23.74;66.75
9676;BME280;4876;42.656;23.292;2022-08-21T10:05:54;93776.22;;;23.92;66.08
9676;BME280;4876;42.656;23.292;2022-08-21T10:08:25;93769.78;;;23.85;65.98
9676;BME280;4876;42.656;23.292;2022-08-21T10:10:55;93761.03;;;23.54;68.64
9676;BME280;4876;42.656;23.292;2022-08-21T10:13:34;93734.91;;;23.82;66.08
9676;BME280;4876;42.656;23.292;2022-08-21T10:16:17;93770.75;;;24.18;67.14
9676;BME280;4876;42.656;23.292;2022-08-21T10:19:00;93756.88;;;24.24;66.45
9676;BME280;4876;42.656;23.292;2022-08-21T10:21:31;93753.00;;;24.25;66.32
9676;BME280;4876;42.656;23.292;2022-08-21T10:24:09;93757.19;;;24.49;67.28
9676;BME280;4876;42.656;23.292;2022-08-21T10:26:47;93754.16;;;24.47;67.90
9676;BME280;4876;42.656;23.292;2022-08-21T10:29:34;93749.91;;;24.26;67.80
9676;BME280;4876;42.656;23.292;2022-08-21T10:32:20;93743.53;;;24.40;67.46
9676;BME280;4876;42.656;23.292;2022-08-21T10:34:56;93749.06;;;24.53;67.00
9676;BME280;4876;42.656;23.292;2022-08-21T10:37:35;93733.16;;;24.62;67.06
9676;BME280;4876;42.656;23.292;2022-08-21T10:40:15;93739.59;;;24.84;65.39
9676;BME280;4876;42.656;23.292;2022-08-21T10:42:51;93732.84;;;24.76;65.41
9676;BME280;4876;42.656;23.292;2022-08-21T10:45:36;93735.34;;;24.67;67.00
9676;BME280;4876;42.656;23.292;2022-08-21T10:48:06;93731.00;;;24.53;66.16
9676;BME280;4876;42.656;23.292;2022-08-21T10:50:39;93727.69;;;24.65;66.77
9676;BME280;4876;42.656;23.292;2022-08-21T10:53:16;93719.63;;;24.65;66.55
9676;BME280;4876;42.656;23.292;2022-08-21T10:55:52;93721.69;;;24.78;66.35
9676;BME280;4876;42.656;23.292;2022-08-21T10:58:27;93707.72;;;24.66;65.59
9676;BME280;4876;42.656;23.292;2022-08-21T11:00:58;93717.63;;;24.69;64.38
9676;BME280;4876;42.656;23.292;2022-08-21T11:03:33;93721.06;;;24.50;64.52
9676;BME280;4876;42.656;23.292;2022-08-21T11:06:04;93714.16;;;24.29;65.69
9676;BME280;4876;42.656;23.292;2022-08-21T11:08:38;93709.84;;;24.35;66.98
9676;BME280;4876;42.656;23.292;2022-08-21T11:11:10;93695.69;;;24.31;66.76
9676;BME280;4876;42.656;23.292;2022-08-21T11:13:42;93692.69;;;24.49;67.72
9676;BME280;4876;42.656;23.292;2022-08-21T11:16:17;93695.78;;;24.48;66.11
9676;BME280;4876;42.656;23.292;2022-08-21T11:18:50;93694.66;;;24.65;67.85
9676;BME280;4876;42.656;23.292;2022-08-21T11:21:30;93695.56;;;24.58;64.98
9676;BME280;4876;42.656;23.292;2022-08-21T11:24:03;93692.34;;;24.67;64.03
9676;BME280;4876;42.656;23.292;2022-08-21T11:26:39;93692.94;;;24.75;64.83
9676;BME280;4876;42.656;23.292;2022-08-21T11:29:12;93695.16;;;24.60;63.95
9676;BME280;4876;42.656;23.292;2022-08-21T11:31:52;93693.97;;;24.81;64.59
9676;BME280;4876;42.656;23.292;2022-08-21T11:34:33;93691.56;;;24.47;64.91
9676;BME280;4876;42.656;23.292;2022-08-21T11:37:11;93686.75;;;24.38;65.07
9676;BME280;4876;42.656;23.292;2022-08-21T11:39:48;93683.72;;;24.36;64.27
9676;BME280;4876;42.656;23.292;2022-08-21T11:42:27;93684.19;;;24.51;63.10
9676;BME280;4876;42.656;23.292;2022-08-21T11:45:12;93687.91;;;24.57;63.66
9676;BME280;4876;42.656;23.292;2022-08-21T11:48:01;93694.25;;;24.66;63.57
9676;BME280;4876;42.656;23.292;2022-08-21T11:50:36;93606.72;;;24.06;63.86
9676;BME280;4876;42.656;23.292;2022-08-21T11:53:11;93690.28;;;24.55;63.28
9676;BME280;4876;42.656;23.292;2022-08-21T11:55:43;93683.84;;;24.68;63.58
9676;BME280;4876;42.656;23.292;2022-08-21T11:58:17;93681.00;;;24.76;63.13
9676;BME280;4876;42.656;23.292;2022-08-21T12:00:49;93687.56;;;24.75;63.97
9676;BME280;4876;42.656;23.292;2022-08-21T12:03:25;93680.06;;;24.66;63.40
9676;BME280;4876;42.656;23.292;2022-08-21T12:05:55;93675.44;;;24.66;63.59
9676;BME280;4876;42.656;23.292;2022-08-21T12:08:30;93668.06;;;24.51;64.07
9676;BME280;4876;42.656;23.292;2022-08-21T12:11:05;93657.91;;;24.58;64.62
9676;BME280;4876;42.656;23.292;2022-08-21T12:13:36;93660.97;;;24.60;64.77
9676;BME280;4876;42.656;23.292;2022-08-21T12:16:08;93666.63;;;24.46;65.21
9676;BME280;4876;42.656;23.292;2022-08-21T12:18:36;93668.28;;;24.40;65.31
9676;BME280;4876;42.656;23.292;2022-08-21T12:21:19;93669.03;;;24.40;64.23
9676;BME280;4876;42.656;23.292;2022-08-21T12:23:48;93666.16;;;24.28;64.81
9676;BME280;4876;42.656;23.292;2022-08-21T12:26:24;93662.22;;;24.36;66.51
9676;BME280;4876;42.656;23.292;2022-08-21T12:29:11;93680.94;;;24.39;65.69
9676;BME280;4876;42.656;23.292;2022-08-21T12:31:49;93668.38;;;24.33;66.16
9676;BME280;4876;42.656;23.292;2022-08-21T12:34:16;93667.22;;;24.34;64.14
9676;BME280;4876;42.656;23.292;2022-08-21T12:36:46;93647.34;;;24.08;64.43
9676;BME280;4876;42.656;23.292;2022-08-21T12:39:22;93668.66;;;24.18;65.02
9676;BME280;4876;42.656;23.292;2022-08-21T12:41:52;93664.81;;;24.20;66.53
9676;BME280;4876;42.656;23.292;2022-08-21T12:44:28;93671.91;;;24.30;66.70
9676;BME280;4876;42.656;23.292;2022-08-21T12:47:01;93662.34;;;24.29;66.34
9676;BME280;4876;42.656;23.292;2022-08-21T12:49:32;93662.91;;;24.40;65.98
9676;BME280;4876;42.656;23.292;2022-08-21T12:52:05;93666.13;;;24.31;66.34
9676;BME280;4876;42.656;23.292;2022-08-21T12:54:39;93657.63;;;24.33;66.52
9676;BME280;4876;42.656;23.292;2022-08-21T12:57:08;93660.59;;;24.18;67.93
9676;BME280;4876;42.656;23.292;2022-08-21T12:59:39;93662.44;;;24.22;66.73
9676;BME280;4876;42.656;23.292;2022-08-21T13:02:16;93654.53;;;24.14;66.87
9676;BME280;4876;42.656;23.292;2022-08-21T13:04:44;93652.69;;;24.11;67.97
9676;BME280;4876;42.656;23.292;2022-08-21T13:07:14;93647.53;;;23.97;68.07
9676;BME280;4876;42.656;23.292;2022-08-21T13:09:44;93652.81;;;24.04;68.54
9676;BME280;4876;42.656;23.292;2022-08-21T13:12:14;93654.94;;;24.13;69.20
9676;BME280;4876;42.656;23.292;2022-08-21T13:14:45;93657.56;;;24.16;68.80
9676;BME280;4876;42.656;23.292;2022-08-21T13:17:14;93657.06;;;24.22;68.70
9676;BME280;4876;42.656;23.292;2022-08-21T13:19:51;93641.03;;;24.18;69.30